sensor_id;sensor_type;location;lat;lon;timestamp;pressure;altitude;pressure_sealevel;temperature;humidity
55576;BME280;41437;45.478;9.116;2023-02-23T00:01:42;99707.25;;;10.01;100.00
55576;BME280;41437;45.478;9.116;2023-02-23T00:04:44;99707.50;;;9.99;100.00
55576;BME280;41437;45.478;9.116;2023-02-23T00:07:45;99705.03;;;9.98;100.00
55576;BME280;41437;45.478;9.116;2023-02-23T00:10:48;99704.41;;;9.91;100.00
55576;BME280;41437;45.478;9.116;2023-02-23T00:13:57;99700.00;;;9.63;100.00
55576;BME280;41437;45.478;9.116;2023-02-23T00:17:00;99705.47;;;9.63;100.00
55576;BME280;41437;45.478;9.116;2023-02-23T00:20:04;99704.94;;;9.66;100.00
55576;BME280;41437;45.478;9.116;2023-02-23T00:23:10;99702.28;;;9.71;100.00
55576;BME280;41437;45.478;9.116;2023-02-23T00:26:18;99713.88;;;9.78;100.00
55576;BME280;41437;45.478;9.116;2023-02-23T00:29:22;99702.38;;;9.81;100.00
55576;BME280;41437;45.478;9.116;2023-02-23T00:32:24;99705.13;;;9.81;100.00
55576;BME280;41437;45.478;9.116;2023-02-23T00:35:26;99705.19;;;9.86;100.00
55576;BME280;41437;45.478;9.116;2023-02-23T00:38:27;99701.09;;;9.89;100.00
55576;BME280;41437;45.478;9.116;2023-02-23T00:41:35;99698.56;;;9.87;100.00
55576;BME280;41437;45.478;9.116;2023-02-23T00:44:36;99701.31;;;9.87;100.00
55576;BME280;41437;45.478;9.116;2023-02-23T00:47:40;99697.78;;;9.92;100.00
55576;BME280;41437;45.478;9.116;2023-02-23T00:50:42;99699.47;;;9.93;100.00
55576;BME280;41437;45.478;9.116;2023-02-23T00:53:45;99704.66;;;9.89;100.00
55576;BME280;41437;45.478;9.116;2023-02-23T00:56:49;99701.31;;;9.87;100.00
55576;BME280;41437;45.478;9.116;2023-02-23T00:59:50;99696.66;;;9.88;100.00
55576;BME280;41437;45.478;9.116;2023-02-23T01:02:52;99704.66;;;9.89;100.00
55576;BME280;41437;45.478;9.116;2023-02-23T01:05:53;99691.69;;;9.85;100.00
55576;BME280;41437;45.478;9.116;2023-02-23T01:08:55;99696.66;;;9.88;100.00
55576;BME280;41437;45.478;9.116;2023-02-23T01:11:58;99696.97;;;9.91;100.00
55576;BME280;41437;45.478;9.116;2023-02-23T01:15:00;99693.69;;;9.94;100.00
55576;BME280;41437;45.478;9.116;2023-02-23T01:18:02;99688.75;;;9.96;100.00
55576;BME280;41437;45.478;9.116;2023-02-23T01:21:05;99687.41;;;9.99;100.00
55576;BME280;41437;45.478;9.116;2023-02-23T01:24:14;99683.25;;;9.96;100.00
55576;BME280;41437;45.478;9.116;2023-02-23T01:27:17;99686.28;;;9.95;100.00
55576;BME280;41437;45.478;9.116;2023-02-23T01:30:19;99691.22;;;9.93;100.00
55576;BME280;41437;45.478;9.116;2023-02-23T01:33:20;99682.09;;;9.92;100.00
55576;BME280;41437;45.478;9.116;2023-02-23T01:36:22;99693.13;;;9.92;100.00
55576;BME280;41437;45.478;9.116;2023-02-23T01:39:24;99679.25;;;9.82;100.00
55576;BME280;41437;45.478;9.116;2023-02-23T01:42:28;99684.09;;;9.70;100.00
55576;BME280;41437;45.478;9.116;2023-02-23T01:45:31;99681.78;;;9.62;100.00
55576;BME280;41437;45.478;9.116;2023-02-23T01:48:37;99685.13;;;9.64;100.00
55576;BME280;41437;45.478;9.116;2023-02-23T01:51:42;99680.78;;;9.68;100.00
55576;BME280;41437;45.478;9.116;2023-02-23T01:54:50;99674.19;;;9.69;100.00
55576;BME280;41437;45.478;9.116;2023-02-23T01:58:00;99672.06;;;9.76;100.00
55576;BME280;41437;45.478;9.116;2023-02-23T02:01:04;99675.69;;;9.81;100.00
55576;BME280;41437;45.478;9.116;2023-02-23T02:04:07;99664.41;;;9.83;100.00
55576;BME280;41437;45.478;9.116;2023-02-23T02:07:10;99663.34;;;9.84;100.00
55576;BME280;41437;45.478;9.116;2023-02-23T02:10:13;99664.16;;;9.85;100.00
55576;BME280;41437;45.478;9.116;2023-02-23T02:13:40;99664.31;;;9.73;100.00
55576;BME280;41437;45.478;9.116;2023-02-23T02:16:51;99656.03;;;9.68;100.00
55576;BME280;41437;45.478;9.116;2023-02-23T02:20:28;99657.00;;;9.56;100.00
55576;BME280;41437;45.478;9.116;2023-02-23T02:24:15;99651.66;;;9.45;100.00
55576;BME280;41437;45.478;9.116;2023-02-23T02:27:36;99648.63;;;9.46;100.00
55576;BME280;41437;45.478;9.116;2023-02-23T02:31:18;99644.84;;;9.52;100.00
55576;BME280;41437;45.478;9.116;2023-02-23T02:38:25;99642.25;;;9.68;100.00
55576;BME280;41437;45.478;9.116;2023-02-23T02:41:34;99639.56;;;9.73;100.00
55576;BME280;41437;45.478;9.116;2023-02-23T02:44:50;99647.84;;;9.78;100.00
55576;BME280;41437;45.478;9.116;2023-02-23T02:47:57;99639.03;;;9.76;100.00
55576;BME280;41437;45.478;9.116;2023-02-23T02:51:07;99635.19;;;9.77;100.00
55576;BME280;41437;45.478;9.116;2023-02-23T02:54:22;99637.13;;;9.76;100.00
55576;BME280;41437;45.478;9.116;2023-02-23T02:57:27;99641.53;;;9.77;100.00
55576;BME280;41437;45.478;9.116;2023-02-23T03:00:34;99639.59;;;9.78;100.00
55576;BME280;41437;45.478;9.116;2023-02-23T03:03:54;99632.75;;;9.80;100.00
55576;BME280;41437;45.478;9.116;2023-02-23T03:07:19;99633.63;;;9.86;100.00
55576;BME280;41437;45.478;9.116;2023-02-23T03:10:45;99632.28;;;9.89;100.00
55576;BME280;41437;45.478;9.116;2023-02-23T03:14:16;99637.69;;;9.78;100.00
55576;BME280;41437;45.478;9.116;2023-02-23T03:17:44;99633.88;;;9.57;100.00
55576;BME280;41437;45.478;9.116;2023-02-23T03:21:07;99632.97;;;9.47;100.00
55576;BME280;41437;45.478;9.116;2023-02-23T03:24:37;99629.69;;;9.50;100.00
55576;BME280;41437;45.478;9.116;2023-02-23T03:28:07;99628.59;;;9.51;100.00
55576;BME280;41437;45.478;9.116;2023-02-23T03:31:35;99623.09;;;9.51;100.00
55576;BME280;41437;45.478;9.116;2023-02-23T03:35:00;99627.50;;;9.52;100.00
55576;BME280;41437;45.478;9.116;2023-02-23T03:38:27;99627.31;;;9.59;100.00
55576;BME280;41437;45.478;9.116;2023-02-23T03:41:51;99621.88;;;9.64;100.00
55576;BME280;41437;45.478;9.116;2023-02-23T03:45:15;99622.13;;;9.62;100.00
55576;BME280;41437;45.478;9.116;2023-02-23T03:48:37;99622.84;;;9.52;100.00
55576;BME280;41437;45.478;9.116;2023-02-23T03:52:01;99627.16;;;9.43;100.00
55576;BME280;41437;45.478;9.116;2023-02-23T03:55:26;99627.66;;;9.40;100.00
55576;BME280;41437;45.478;9.116;2023-02-23T03:58:51;99631.31;;;9.46;100.00
55576;BME280;41437;45.478;9.116;2023-02-23T04:02:13;99629.69;;;9.50;100.00
55576;BME280;41437;45.478;9.116;2023-02-23T04:05:37;99624.16;;;9.45;100.00
55576;BME280;41437;45.478;9.116;2023-02-23T04:09:02;99635.91;;;9.40;100.00
55576;BME280;41437;45.478;9.116;2023-02-23T04:12:23;99634.19;;;9.34;100.00
55576;BME280;41437;45.478;9.116;2023-02-23T04:15:48;99633.25;;;9.23;100.00
55576;BME280;41437;45.478;9.116;2023-02-23T04:18:50;99631.84;;;9.21;100.00
55576;BME280;41437;45.478;9.116;2023-02-23T04:21:52;99634.19;;;9.34;100.00
55576;BME280;41437;45.478;9.116;2023-02-23T04:24:53;99632.03;;;9.36;100.00
55576;BME280;41437;45.478;9.116;2023-02-23T04:27:55;99632.59;;;9.38;100.00
55576;BME280;41437;45.478;9.116;2023-02-23T04:30:57;99634.25;;;9.39;100.00
55576;BME280;41437;45.478;9.116;2023-02-23T04:34:00;99636.22;;;9.44;100.00
55576;BME280;41437;45.478;9.116;2023-02-23T04:37:04;99632.97;;;9.47;100.00
55576;BME280;41437;45.478;9.116;2023-02-23T04:40:06;99634.38;;;9.49;100.00
55576;BME280;41437;45.478;9.116;2023-02-23T04:43:09;99633.22;;;9.45;100.00
55576;BME280;41437;45.478;9.116;2023-02-23T04:46:12;99651.84;;;9.38;100.00
55576;BME280;41437;45.478;9.116;2023-02-23T04:49:14;99643.59;;;9.38;100.00
55576;BME280;41437;45.478;9.116;2023-02-23T04:52:16;99648.31;;;9.43;100.00
55576;BME280;41437;45.478;9.116;2023-02-23T04:55:20;99646.25;;;9.28;100.00
55576;BME280;41437;45.478;9.116;2023-02-23T04:58:21;99647.50;;;9.20;100.00
55576;BME280;41437;45.478;9.116;2023-02-23T05:01:23;99654.16;;;9.24;100.00
55576;BME280;41437;45.478;9.116;2023-02-23T05:04:27;99651.41;;;9.24;100.00
55576;BME280;41437;45.478;9.116;2023-02-23T05:07:29;99647.84;;;9.24;100.00
55576;BME280;41437;45.478;9.116;2023-02-23T05:10:31;99644.00;;;9.25;100.00
55576;BME280;41437;45.478;9.116;2023-02-23T05:13:34;99645.41;;;9.27;100.00
55576;BME280;41437;45.478;9.116;2023-02-23T05:16:36;99642.72;;;9.32;100.00
55576;BME280;41437;45.478;9.116;2023-02-23T05:19:39;99645.78;;;9.36;100.00
55576;BME280;41437;45.478;9.116;2023-02-23T05:22:40;99638.91;;;9.39;100.00
55576;BME280;41437;45.478;9.116;2023-02-23T05:25:43;99639.25;;;9.42;100.00
55576;BME280;41437;45.478;9.116;2023-02-23T05:28:44;99641.22;;;9.47;100.00
55576;BME280;41437;45.478;9.116;2023-02-23T05:31:46;99634.88;;;9.46;100.00
55576;BME280;41437;45.478;9.116;2023-02-23T05:34:49;99636.53;;;9.47;100.00
55576;BME280;41437;45.478;9.116;2023-02-23T05:37:51;99628.28;;;9.47;100.00
55576;BME280;41437;45.478;9.116;2023-02-23T05:40:52;99637.63;;;9.46;100.00
55576;BME280;41437;45.478;9.116;2023-02-23T05:43:55;99631.31;;;9.46;100.00
55576;BME280;41437;45.478;9.116;2023-02-23T05:46:57;99633.75;;;9.42;100.00
55576;BME280;41437;45.478;9.116;2023-02-23T05:50:01;99640.56;;;9.40;100.00
55576;BME280;41437;45.478;9.116;2023-02-23T05:53:03;99640.78;;;9.33;100.00
55576;BME280;41437;45.478;9.116;2023-02-23T05:56:07;99634.66;;;9.26;100.00
55576;BME280;41437;45.478;9.116;2023-02-23T05:59:09;99644.00;;;9.25;100.00
55576;BME280;41437;45.478;9.116;2023-02-23T06:02:12;99638.94;;;9.17;100.00
55576;BME280;41437;45.478;9.116;2023-02-23T06:05:15;99649.88;;;9.12;100.00
55576;BME280;41437;45.478;9.116;2023-02-23T06:08:17;99653.06;;;9.03;100.00
55576;BME280;41437;45.478;9.116;2023-02-23T06:11:19;99653.56;;;9.00;100.00
55576;BME280;41437;45.478;9.116;2023-02-23T06:14:21;99664.56;;;9.00;100.00
55576;BME280;41437;45.478;9.116;2023-02-23T06:17:22;99658.78;;;8.97;100.00
55576;BME280;41437;45.478;9.116;2023-02-23T06:20:27;99661.81;;;9.00;100.00
55576;BME280;41437;45.478;9.116;2023-02-23T06:23:31;99664.66;;;9.05;100.00
55576;BME280;41437;45.478;9.116;2023-02-23T06:26:33;99660.59;;;9.13;100.00
55576;BME280;41437;45.478;9.116;2023-02-23T06:29:34;99666.94;;;9.14;100.00
55576;BME280;41437;45.478;9.116;2023-02-23T06:32:36;99664.56;;;9.00;100.00
55576;BME280;41437;45.478;9.116;2023-02-23T06:35:39;99663.94;;;8.93;100.00
55576;BME280;41437;45.478;9.116;2023-02-23T06:38:41;99660.50;;;9.03;100.00
55576;BME280;41437;45.478;9.116;2023-02-23T06:41:43;99662.97;;;9.04;100.00
55576;BME280;41437;45.478;9.116;2023-02-23T06:44:45;99668.03;;;9.13;100.00
55576;BME280;41437;45.478;9.116;2023-02-23T06:47:47;99669.25;;;9.22;100.00
55576;BME280;41437;45.478;9.116;2023-02-23T06:50:49;99671.28;;;9.31;100.00
55576;BME280;41437;45.478;9.116;2023-02-23T06:53:51;99688.22;;;9.45;100.00
55576;BME280;41437;45.478;9.116;2023-02-23T06:56:53;99686.69;;;9.54;100.00
55576;BME280;41437;45.478;9.116;2023-02-23T06:59:57;99695.03;;;9.65;100.00
55576;BME280;41437;45.478;9.116;2023-02-23T07:02:59;99696.50;;;9.72;100.00
55576;BME280;41437;45.478;9.116;2023-02-23T07:06:03;99701.69;;;9.69;100.00
55576;BME280;41437;45.478;9.116;2023-02-23T07:09:04;99706.09;;;9.70;100.00
55576;BME280;41437;45.478;9.116;2023-02-23T07:12:06;99699.22;;;9.67;100.00
55576;BME280;41437;45.478;9.116;2023-02-23T07:15:09;99700.91;;;9.73;100.00
55576;BME280;41437;45.478;9.116;2023-02-23T07:18:11;99702.69;;;9.85;100.00
55576;BME280;41437;45.478;9.116;2023-02-23T07:21:14;99706.84;;;9.87;100.00
55576;BME280;41437;45.478;9.116;2023-02-23T07:24:16;99706.31;;;9.90;100.00
55576;BME280;41437;45.478;9.116;2023-02-23T07:27:17;99705.81;;;9.93;100.00
55576;BME280;41437;45.478;9.116;2023-02-23T07:30:19;99710.84;;;10.01;100.00
55576;BME280;41437;45.478;9.116;2023-02-23T07:33:24;99705.44;;;10.12;100.00
55576;BME280;41437;45.478;9.116;2023-02-23T07:36:28;99712.94;;;10.21;100.00
55576;BME280;41437;45.478;9.116;2023-02-23T07:39:32;99705.34;;;10.28;100.00
55576;BME280;41437;45.478;9.116;2023-02-23T07:42:34;99720.56;;;10.36;100.00
55576;BME280;41437;45.478;9.116;2023-02-23T07:45:35;99720.00;;;10.39;100.00
55576;BME280;41437;45.478;9.116;2023-02-23T07:48:37;99723.34;;;10.41;100.00
55576;BME280;41437;45.478;9.116;2023-02-23T07:51:47;99720.31;;;10.43;100.00
55576;BME280;41437;45.478;9.116;2023-02-23T07:54:49;99724.72;;;10.44;100.00
55576;BME280;41437;45.478;9.116;2023-02-23T07:57:51;99721.47;;;10.47;100.00
55576;BME280;41437;45.478;9.116;2023-02-23T08:00:53;99729.69;;;10.42;100.00
55576;BME280;41437;45.478;9.116;2023-02-23T08:03:54;99726.06;;;10.36;100.00
55576;BME280;41437;45.478;9.116;2023-02-23T08:06:58;99722.41;;;10.30;100.00
55576;BME280;41437;45.478;9.116;2023-02-23T08:09:59;99728.47;;;10.27;100.00
55576;BME280;41437;45.478;9.116;2023-02-23T08:13:01;99725.00;;;10.42;100.00
55576;BME280;41437;45.478;9.116;2023-02-23T08:16:03;99727.88;;;10.57;100.00
55576;BME280;41437;45.478;9.116;2023-02-23T08:19:05;99723.59;;;10.72;100.00
55576;BME280;41437;45.478;9.116;2023-02-23T08:22:08;99724.47;;;10.82;100.00
55576;BME280;41437;45.478;9.116;2023-02-23T08:25:09;99727.66;;;11.01;100.00
55576;BME280;41437;45.478;9.116;2023-02-23T08:28:11;99741.19;;;11.08;100.00
55576;BME280;41437;45.478;9.116;2023-02-23T08:31:13;99726.38;;;11.24;100.00
55576;BME280;41437;45.478;9.116;2023-02-23T08:34:15;99739.44;;;11.44;100.00
55576;BME280;41437;45.478;9.116;2023-02-23T08:37:18;99737.28;;;11.62;100.00
55576;BME280;41437;45.478;9.116;2023-02-23T08:40:22;99734.59;;;11.82;100.00
55576;BME280;41437;45.478;9.116;2023-02-23T08:43:23;99740.91;;;11.67;100.00
55576;BME280;41437;45.478;9.116;2023-02-23T08:46:25;99743.94;;;11.71;100.00
55576;BME280;41437;45.478;9.116;2023-02-23T08:49:27;99741.16;;;11.61;100.00
55576;BME280;41437;45.478;9.116;2023-02-23T08:52:31;99740.84;;;11.52;100.00
55576;BME280;41437;45.478;9.116;2023-02-23T08:55:33;99745.00;;;11.49;100.00
55576;BME280;41437;45.478;9.116;2023-02-23T08:58:35;99747.56;;;11.71;100.00
55576;BME280;41437;45.478;9.116;2023-02-23T09:01:37;99757.81;;;11.81;100.00
55576;BME280;41437;45.478;9.116;2023-02-23T09:04:38;99747.88;;;11.80;100.00
55576;BME280;41437;45.478;9.116;2023-02-23T09:07:44;99753.97;;;11.87;100.00
55576;BME280;41437;45.478;9.116;2023-02-23T09:10:46;99748.94;;;11.74;100.00
55576;BME280;41437;45.478;9.116;2023-02-23T09:13:48;99750.09;;;11.83;100.00
55576;BME280;41437;45.478;9.116;2023-02-23T09:16:50;99757.22;;;11.79;100.00
55576;BME280;41437;45.478;9.116;2023-02-23T09:19:52;99752.34;;;11.91;100.00
55576;BME280;41437;45.478;9.116;2023-02-23T09:22:55;99758.44;;;11.98;100.00
55576;BME280;41437;45.478;9.116;2023-02-23T09:26:01;99752.63;;;12.05;100.00
55576;BME280;41437;45.478;9.116;2023-02-23T09:29:03;99750.44;;;12.07;100.00
55576;BME280;41437;45.478;9.116;2023-02-23T09:32:05;99752.38;;;12.06;100.00
55576;BME280;41437;45.478;9.116;2023-02-23T09:35:07;99757.63;;;12.18;100.00
55576;BME280;41437;45.478;9.116;2023-02-23T09:38:10;99752.16;;;12.23;100.00
55576;BME280;41437;45.478;9.116;2023-02-23T09:41:36;99768.38;;;12.10;100.00
55576;BME280;41437;45.478;9.116;2023-02-23T09:44:51;99758.44;;;12.08;100.00
55576;BME280;41437;45.478;9.116;2023-02-23T09:48:01;99764.03;;;12.29;100.00
55576;BME280;41437;45.478;9.116;2023-02-23T09:51:06;99762.38;;;12.48;100.00
55576;BME280;41437;45.478;9.116;2023-02-23T09:54:11;99757.41;;;12.61;98.95
55576;BME280;41437;45.478;9.116;2023-02-23T09:57:17;99766.81;;;12.54;99.56
55576;BME280;41437;45.478;9.116;2023-02-23T10:00:22;99769.84;;;12.63;99.76
55576;BME280;41437;45.478;9.116;2023-02-23T10:03:27;99765.69;;;12.71;98.98
55576;BME280;41437;45.478;9.116;2023-02-23T10:06:30;99758.81;;;12.63;98.84
55576;BME280;41437;45.478;9.116;2023-02-23T10:09:46;99764.03;;;12.65;99.15
55576;BME280;41437;45.478;9.116;2023-02-23T10:12:58;99766.25;;;12.57;100.00
55576;BME280;41437;45.478;9.116;2023-02-23T10:16:06;99759.06;;;12.46;100.00
55576;BME280;41437;45.478;9.116;2023-02-23T10:19:13;99760.44;;;12.33;100.00
55576;BME280;41437;45.478;9.116;2023-02-23T10:22:20;99754.63;;;12.25;100.00
55576;BME280;41437;45.478;9.116;2023-02-23T10:25:27;99765.66;;;12.20;100.00
55576;BME280;41437;45.478;9.116;2023-02-23T10:28:34;99760.94;;;12.10;100.00
55576;BME280;41437;45.478;9.116;2023-02-23T10:31:40;99767.00;;;12.02;100.00
55576;BME280;41437;45.478;9.116;2023-02-23T10:34:45;99762.31;;;12.13;100.00
55576;BME280;41437;45.478;9.116;2023-02-23T10:37:49;99760.13;;;12.20;100.00
55576;BME280;41437;45.478;9.116;2023-02-23T10:40:55;99753.50;;;12.26;100.00
55576;BME280;41437;45.478;9.116;2023-02-23T10:43:57;99764.84;;;12.24;100.00
55576;BME280;41437;45.478;9.116;2023-02-23T10:47:01;99755.19;;;12.32;100.00
55576;BME280;41437;45.478;9.116;2023-02-23T10:50:03;99758.50;;;12.39;100.00
55576;BME280;41437;45.478;9.116;2023-02-23T10:53:12;99759.59;;;12.53;100.00
55576;BME280;41437;45.478;9.116;2023-02-23T10:56:20;99762.13;;;12.55;99.60
55576;BME280;41437;45.478;9.116;2023-02-23T10:59:24;99760.16;;;12.61;99.75
55576;BME280;41437;45.478;9.116;2023-02-23T11:02:28;99762.38;;;12.64;99.03
55576;BME280;41437;45.478;9.116;2023-02-23T11:05:36;99759.63;;;12.74;97.93
55576;BME280;41437;45.478;9.116;2023-02-23T11:08:43;99754.63;;;12.91;96.99
55576;BME280;41437;45.478;9.116;2023-02-23T11:11:57;99750.72;;;13.07;95.75
55576;BME280;41437;45.478;9.116;2023-02-23T11:15:25;99756.25;;;13.13;95.42
55576;BME280;41437;45.478;9.116;2023-02-23T11:18:27;99751.53;;;13.18;94.37
55576;BME280;41437;45.478;9.116;2023-02-23T11:21:31;99752.34;;;13.34;93.46
55576;BME280;41437;45.478;9.116;2023-02-23T11:24:35;99743.94;;;13.65;92.24
55576;BME280;41437;45.478;9.116;2023-02-23T11:27:38;99743.25;;;13.93;88.78
55576;BME280;41437;45.478;9.116;2023-02-23T11:30:40;99746.28;;;13.92;87.16
55576;BME280;41437;45.478;9.116;2023-02-23T11:33:42;99737.88;;;13.63;88.26
55576;BME280;41437;45.478;9.116;2023-02-23T11:36:57;99741.63;;;13.82;87.22
55576;BME280;41437;45.478;9.116;2023-02-23T11:40:00;99741.72;;;14.16;86.28
55576;BME280;41437;45.478;9.116;2023-02-23T11:43:08;99736.53;;;14.44;83.68
55576;BME280;41437;45.478;9.116;2023-02-23T11:46:13;99733.22;;;14.42;83.67
55576;BME280;41437;45.478;9.116;2023-02-23T11:49:18;99735.78;;;14.33;83.07
55576;BME280;41437;45.478;9.116;2023-02-23T11:52:24;99729.44;;;14.27;82.86
55576;BME280;41437;45.478;9.116;2023-02-23T11:55:28;99730.72;;;14.40;81.74
55576;BME280;41437;45.478;9.116;2023-02-23T11:58:36;99728.19;;;14.49;82.96
55576;BME280;41437;45.478;9.116;2023-02-23T12:01:41;99724.03;;;14.51;82.55
55576;BME280;41437;45.478;9.116;2023-02-23T12:04:45;99720.72;;;14.44;82.55
55576;BME280;41437;45.478;9.116;2023-02-23T12:07:53;99718.78;;;14.45;81.63
55576;BME280;41437;45.478;9.116;2023-02-23T12:10:57;99714.06;;;14.45;82.89
55576;BME280;41437;45.478;9.116;2023-02-23T12:14:06;99708.00;;;14.43;82.42
55576;BME280;41437;45.478;9.116;2023-02-23T12:17:16;99716.09;;;14.34;82.57
55576;BME280;41437;45.478;9.116;2023-02-23T12:20:22;99705.97;;;14.20;83.69
55576;BME280;41437;45.478;9.116;2023-02-23T12:23:28;99705.34;;;14.28;83.10
55576;BME280;41437;45.478;9.116;2023-02-23T12:26:38;99705.38;;;14.23;82.77
55576;BME280;41437;45.478;9.116;2023-02-23T12:29:57;99702.53;;;14.33;82.11
55576;BME280;41437;45.478;9.116;2023-02-23T12:33:05;99701.03;;;14.12;82.50
55576;BME280;41437;45.478;9.116;2023-02-23T12:36:15;99697.22;;;14.02;84.14
55576;BME280;41437;45.478;9.116;2023-02-23T12:39:25;99686.31;;;14.16;83.75
55576;BME280;41437;45.478;9.116;2023-02-23T12:42:36;99684.22;;;14.32;82.55
55576;BME280;41437;45.478;9.116;2023-02-23T12:45:44;99689.41;;;14.78;77.48
55576;BME280;41437;45.478;9.116;2023-02-23T12:48:55;99687.78;;;15.01;77.09
55576;BME280;41437;45.478;9.116;2023-02-23T12:52:03;99676.31;;;15.31;76.52
55576;BME280;41437;45.478;9.116;2023-02-23T12:55:11;99679.75;;;15.47;73.68
55576;BME280;41437;45.478;9.116;2023-02-23T12:58:21;99681.47;;;15.43;73.68
55576;BME280;41437;45.478;9.116;2023-02-23T13:01:28;99675.09;;;15.43;73.15
55576;BME280;41437;45.478;9.116;2023-02-23T13:08:08;99677.44;;;15.54;71.14
55576;BME280;41437;45.478;9.116;2023-02-23T13:11:25;99674.13;;;15.52;71.75
55576;BME280;41437;45.478;9.116;2023-02-23T13:14:36;99673.56;;;15.07;74.27
55576;BME280;41437;45.478;9.116;2023-02-23T13:17:50;99668.34;;;14.77;74.75
55576;BME280;41437;45.478;9.116;2023-02-23T13:21:00;99675.78;;;14.47;76.04
55576;BME280;41437;45.478;9.116;2023-02-23T13:24:05;99664.00;;;14.66;76.26
55576;BME280;41437;45.478;9.116;2023-02-23T13:27:14;99668.03;;;14.78;76.57
55576;BME280;41437;45.478;9.116;2023-02-23T13:30:17;99661.34;;;15.08;74.77
55576;BME280;41437;45.478;9.116;2023-02-23T13:33:24;99662.09;;;15.38;69.88
55576;BME280;41437;45.478;9.116;2023-02-23T13:36:28;99663.16;;;15.42;68.03
55576;BME280;41437;45.478;9.116;2023-02-23T13:39:54;99661.63;;;15.31;67.47
55576;BME280;41437;45.478;9.116;2023-02-23T13:43:02;99648.59;;;15.07;69.38
55576;BME280;41437;45.478;9.116;2023-02-23T13:46:17;99658.50;;;14.90;69.47
55576;BME280;41437;45.478;9.116;2023-02-23T13:49:33;99659.34;;;14.90;69.51
55576;BME280;41437;45.478;9.116;2023-02-23T13:52:40;99658.16;;;14.96;70.47
55576;BME280;41437;45.478;9.116;2023-02-23T13:55:47;99656.63;;;15.33;69.89
55576;BME280;41437;45.478;9.116;2023-02-23T13:58:53;99656.50;;;15.62;68.80
55576;BME280;41437;45.478;9.116;2023-02-23T14:01:59;99664.13;;;15.94;67.58
55576;BME280;41437;45.478;9.116;2023-02-23T14:05:06;99658.31;;;16.09;67.45
55576;BME280;41437;45.478;9.116;2023-02-23T14:08:21;99646.97;;;16.25;65.68
55576;BME280;41437;45.478;9.116;2023-02-23T14:11:40;99647.66;;;16.17;64.49
55576;BME280;41437;45.478;9.116;2023-02-23T14:14:45;99647.25;;;16.23;65.37
55576;BME280;41437;45.478;9.116;2023-02-23T14:17:55;99646.88;;;16.30;62.33
55576;BME280;41437;45.478;9.116;2023-02-23T14:21:04;99653.44;;;16.20;60.73
55576;BME280;41437;45.478;9.116;2023-02-23T14:24:17;99644.59;;;15.99;63.00
55576;BME280;41437;45.478;9.116;2023-02-23T14:27:22;99644.13;;;15.92;62.02
55576;BME280;41437;45.478;9.116;2023-02-23T14:30:26;99640.09;;;16.03;62.66
55576;BME280;41437;45.478;9.116;2023-02-23T14:33:35;99645.78;;;16.12;61.52
55576;BME280;41437;45.478;9.116;2023-02-23T14:36:42;99643.00;;;15.93;62.11
55576;BME280;41437;45.478;9.116;2023-02-23T14:39:50;99642.31;;;15.64;62.40
55576;BME280;41437;45.478;9.116;2023-02-23T14:42:56;99632.41;;;15.57;63.44
55576;BME280;41437;45.478;9.116;2023-02-23T14:46:00;99639.81;;;15.67;64.16
55576;BME280;41437;45.478;9.116;2023-02-23T14:49:06;99636.88;;;15.53;63.30
55576;BME280;41437;45.478;9.116;2023-02-23T14:52:15;99638.69;;;15.68;63.50
55576;BME280;41437;45.478;9.116;2023-02-23T14:55:21;99641.47;;;15.68;63.50
55576;BME280;41437;45.478;9.116;2023-02-23T14:58:26;99642.31;;;15.64;64.54
55576;BME280;41437;45.478;9.116;2023-02-23T15:01:33;99632.00;;;15.45;66.49
55576;BME280;41437;45.478;9.116;2023-02-23T15:04:36;99628.25;;;15.36;68.16
55576;BME280;41437;45.478;9.116;2023-02-23T15:07:40;99629.53;;;15.44;66.46
55576;BME280;41437;45.478;9.116;2023-02-23T15:10:45;99639.38;;;14.88;67.98
55576;BME280;41437;45.478;9.116;2023-02-23T15:13:48;99624.91;;;14.67;68.52
55576;BME280;41437;45.478;9.116;2023-02-23T15:16:51;99621.19;;;14.48;71.28
55576;BME280;41437;45.478;9.116;2023-02-23T15:19:54;99628.66;;;14.52;70.67
55576;BME280;41437;45.478;9.116;2023-02-23T15:22:59;99629.66;;;14.32;70.55
55576;BME280;41437;45.478;9.116;2023-02-23T15:26:14;99625.56;;;14.25;72.55
55576;BME280;41437;45.478;9.116;2023-02-23T15:29:18;99629.31;;;14.05;72.89
55576;BME280;41437;45.478;9.116;2023-02-23T15:32:22;99627.16;;;13.97;74.28
55576;BME280;41437;45.478;9.116;2023-02-23T15:35:29;99632.88;;;14.11;75.35
55576;BME280;41437;45.478;9.116;2023-02-23T15:38:34;99631.38;;;14.23;73.19
55576;BME280;41437;45.478;9.116;2023-02-23T15:41:44;99631.56;;;14.32;72.52
55576;BME280;41437;45.478;9.116;2023-02-23T15:44:57;99641.09;;;14.21;73.48
55576;BME280;41437;45.478;9.116;2023-02-23T15:48:03;99628.91;;;14.22;74.07
55576;BME280;41437;45.478;9.116;2023-02-23T15:51:05;99633.72;;;14.11;73.84
55576;BME280;41437;45.478;9.116;2023-02-23T15:54:15;99629.50;;;14.14;74.03
55576;BME280;41437;45.478;9.116;2023-02-23T15:57:20;99624.59;;;14.05;75.15
55576;BME280;41437;45.478;9.116;2023-02-23T16:00:29;99629.09;;;13.96;75.81
55576;BME280;41437;45.478;9.116;2023-02-23T16:03:38;99634.91;;;14.00;78.15
55576;BME280;41437;45.478;9.116;2023-02-23T16:06:49;99631.81;;;14.01;75.86
55576;BME280;41437;45.478;9.116;2023-02-23T16:09:54;99628.81;;;13.98;75.98
55576;BME280;41437;45.478;9.116;2023-02-23T16:12:59;99634.69;;;13.91;76.16
55576;BME280;41437;45.478;9.116;2023-02-23T16:16:04;99623.63;;;13.86;76.51
55576;BME280;41437;45.478;9.116;2023-02-23T16:19:09;99628.13;;;13.77;77.66
55576;BME280;41437;45.478;9.116;2023-02-23T16:22:19;99622.66;;;13.67;78.21
55576;BME280;41437;45.478;9.116;2023-02-23T16:25:25;99625.41;;;13.67;79.65
55576;BME280;41437;45.478;9.116;2023-02-23T16:28:29;99622.16;;;13.60;78.63
55576;BME280;41437;45.478;9.116;2023-02-23T16:31:40;99623.81;;;13.61;78.58
55576;BME280;41437;45.478;9.116;2023-02-23T16:34:47;99626.91;;;13.54;79.35